createdAt,value
2019-05-26T00:02:48.391Z,10.30
2019-05-26T00:08:13.868Z,10.10
2019-05-26T00:13:39.132Z,10.00
2019-05-26T00:19:04.267Z,9.90
2019-05-26T00:24:29.806Z,9.80
2019-05-26T00:29:54.951Z,9.60
2019-05-26T00:35:20.221Z,9.50
2019-05-26T00:40:47.158Z,9.40
2019-05-26T00:46:12.573Z,9.30
2019-05-26T00:51:37.764Z,9.20
2019-05-26T00:57:03.354Z,9.00
2019-05-26T01:02:28.960Z,8.90
2019-05-26T01:08:05.659Z,8.80
2019-05-26T01:13:22.362Z,8.70
2019-05-26T01:18:44.754Z,8.60
2019-05-26T01:24:06.960Z,8.50
2019-05-26T01:29:15.126Z,8.40
2019-05-26T01:34:23.250Z,8.30
2019-05-26T01:39:38.446Z,8.30
2019-05-26T01:45:08.728Z,8.30
2019-05-26T01:50:35.054Z,8.30
2019-05-26T01:55:47.978Z,8.20
2019-05-26T02:01:00.894Z,8.30
2019-05-26T02:06:11.711Z,8.40
2019-05-26T02:11:30.063Z,8.50
2019-05-26T02:16:37.408Z,8.60
2019-05-26T02:21:46.240Z,8.70
2019-05-26T02:27:00.146Z,8.80
2019-05-26T02:32:25.623Z,8.90
2019-05-26T02:37:51.092Z,9.00
2019-05-26T02:43:16.393Z,9.00
2019-05-26T02:48:41.912Z,9.00
2019-05-26T02:54:07.968Z,9.00
2019-05-26T02:59:33.219Z,9.10
2019-05-26T03:05:01.637Z,9.10
2019-05-26T03:10:27.813Z,9.10
2019-05-26T03:15:45.904Z,9.10
2019-05-26T03:21:14.424Z,9.10
2019-05-26T03:26:39.796Z,9.10
2019-05-26T03:32:05.659Z,9.10
2019-05-26T03:37:27.762Z,9.10
2019-05-26T03:42:36.526Z,9.10
2019-05-26T03:47:47.718Z,9.10
2019-05-26T03:53:14.021Z,9.10
2019-05-26T03:58:39.346Z,9.10
2019-05-26T04:04:05.738Z,9.10
2019-05-26T04:09:13.932Z,9.00
2019-05-26T04:14:23.962Z,9.00
2019-05-26T04:19:49.792Z,9.10
2019-05-26T04:25:08.701Z,9.30
2019-05-26T04:30:18.606Z,9.50
2019-05-26T04:35:26.284Z,9.60
2019-05-26T04:40:38.680Z,9.80
2019-05-26T04:45:47.433Z,10.00
2019-05-26T04:50:54.610Z,10.10
2019-05-26T04:56:02.971Z,10.40
2019-05-26T05:01:11.267Z,10.70
2019-05-26T05:06:36.820Z,10.90
2019-05-26T05:12:03.135Z,11.20
2019-05-26T05:17:29.231Z,11.40
2019-05-26T05:22:54.795Z,11.70
2019-05-26T05:28:20.005Z,12.00
2019-05-26T05:33:46.845Z,12.30
2019-05-26T05:38:55.426Z,12.50
2019-05-26T05:44:11.126Z,12.80
2019-05-26T05:49:19.877Z,13.00
2019-05-26T05:54:30.765Z,13.30
2019-05-26T05:59:51.397Z,13.50
2019-05-26T06:05:00.402Z,13.70
2019-05-26T06:10:11.868Z,14.00
2019-05-26T06:15:21.715Z,14.20
2019-05-26T06:20:32.370Z,14.40
2019-05-26T06:25:42.953Z,14.60
2019-05-26T06:30:52.223Z,14.80
2019-05-26T06:36:00.728Z,15.20
2019-05-26T06:41:12.229Z,15.30
2019-05-26T06:46:21.974Z,15.40
2019-05-26T06:51:44.432Z,15.80
2019-05-26T06:56:51.750Z,16.00
2019-05-26T07:02:00.237Z,16.10
2019-05-26T07:07:11.031Z,16.20
2019-05-26T07:12:35.468Z,16.30
2019-05-26T07:18:00.915Z,16.50
2019-05-26T07:23:27.045Z,16.90
2019-05-26T07:28:52.760Z,17.00
2019-05-26T07:34:02.817Z,17.30
2019-05-26T07:39:13.468Z,17.30
2019-05-26T07:44:22.302Z,17.60
2019-05-26T07:49:31.702Z,17.50
2019-05-26T07:54:51.816Z,17.60
2019-05-26T08:00:00.254Z,18.00
2019-05-26T08:05:14.427Z,18.20
2019-05-26T08:10:26.204Z,18.40
2019-05-26T08:15:51.372Z,18.60
2019-05-26T08:21:03.070Z,18.50
2019-05-26T08:26:15.710Z,18.80
2019-05-26T08:31:26.454Z,18.80
2019-05-26T08:36:42.292Z,19.00
2019-05-26T08:41:51.474Z,19.20
2019-05-26T08:46:59.425Z,18.70
2019-05-26T08:52:09.885Z,19.10
2019-05-26T08:57:18.119Z,19.20
2019-05-26T09:02:33.894Z,19.60
2019-05-26T09:07:42.932Z,19.70
2019-05-26T09:13:00.930Z,19.20
2019-05-26T09:18:20.390Z,19.60
2019-05-26T09:23:45.914Z,19.80
2019-05-26T09:29:12.473Z,20.00
2019-05-26T09:34:22.447Z,19.60
2019-05-26T09:39:47.585Z,19.60
2019-05-26T09:44:57.491Z,19.60
2019-05-26T09:50:09.895Z,19.90
2019-05-26T09:55:35.974Z,19.60
2019-05-26T10:01:02.305Z,20.00
2019-05-26T10:06:11.047Z,20.20
2019-05-26T10:11:18.179Z,19.90
2019-05-26T10:16:30.736Z,19.80
2019-05-26T10:21:41.388Z,19.70
2019-05-26T10:26:53.554Z,19.90
2019-05-26T10:32:01.795Z,19.80
2019-05-26T10:37:11.955Z,20.20
2019-05-26T10:42:21.682Z,20.60
2019-05-26T10:47:47.363Z,20.90
2019-05-26T10:52:56.244Z,20.90
2019-05-26T10:58:05.891Z,20.70
2019-05-26T11:03:15.742Z,21.30
2019-05-26T11:08:26.212Z,21.30
2019-05-26T11:14:02.275Z,21.10
2019-05-26T11:19:01.776Z,21.10
2019-05-26T11:24:14.677Z,21.50
2019-05-26T11:29:24.459Z,21.70
2019-05-26T11:34:36.651Z,22.10
2019-05-26T11:40:23.519Z,21.70
2019-05-26T11:45:48.882Z,21.80
2019-05-26T11:51:01.992Z,21.20
2019-05-26T11:56:12.465Z,21.60
2019-05-26T12:01:23.521Z,21.70
2019-05-26T12:06:33.387Z,21.80
2019-05-26T12:11:43.577Z,21.60
2019-05-26T12:16:51.705Z,21.90
2019-05-26T12:21:59.946Z,22.10
2019-05-26T12:27:09.349Z,22.00
2019-05-26T12:32:36.049Z,22.00
2019-05-26T12:38:01.637Z,22.30
2019-05-26T12:43:10.933Z,22.00
2019-05-26T12:48:26.340Z,21.80
2019-05-26T12:53:51.508Z,21.80
2019-05-26T12:58:58.797Z,21.90
2019-05-26T13:04:08.316Z,21.70
2019-05-26T13:09:19.347Z,21.80
2019-05-26T13:14:31.761Z,21.90
2019-05-26T13:19:40.835Z,22.30
2019-05-26T13:25:08.631Z,22.30
2019-05-26T13:30:23.815Z,22.80
2019-05-26T13:35:42.439Z,22.80
2019-05-26T13:40:53.094Z,22.80
2019-05-26T13:46:01.986Z,22.70
2019-05-26T13:51:13.925Z,22.60
2019-05-26T13:56:24.441Z,22.60
2019-05-26T14:01:43.859Z,22.50
2019-05-26T14:07:07.315Z,22.50
2019-05-26T14:12:15.494Z,23.00
2019-05-26T14:17:35.159Z,22.70
2019-05-26T14:22:44.874Z,23.10
2019-05-26T14:28:12.523Z,22.30
2019-05-26T14:33:23.836Z,22.90
2019-05-26T14:38:43.554Z,22.30
2019-05-26T14:43:51.363Z,22.60
2019-05-26T14:49:02.677Z,22.40
2019-05-26T14:54:13.986Z,22.40
2019-05-26T14:59:22.898Z,22.80
2019-05-26T15:04:50.660Z,22.20
2019-05-26T15:09:57.931Z,22.30
2019-05-26T15:15:07.966Z,22.30
2019-05-26T15:20:15.679Z,22.70
2019-05-26T15:25:24.792Z,22.60
2019-05-26T15:30:37.027Z,23.10
2019-05-26T15:35:59.348Z,22.90
2019-05-26T15:41:24.979Z,22.10
2019-05-26T15:46:51.011Z,22.30
2019-05-26T15:52:03.618Z,22.50
2019-05-26T15:57:13.668Z,22.30
2019-05-26T16:02:39.192Z,22.20
2019-05-26T16:08:04.810Z,22.30
2019-05-26T16:13:14.324Z,22.10
2019-05-26T16:18:22.865Z,22.50
2019-05-26T16:23:48.145Z,22.60
2019-05-26T16:29:07.308Z,22.50
2019-05-26T16:34:17.674Z,22.50
2019-05-26T16:39:37.303Z,22.40
2019-05-26T16:45:00.275Z,21.90
2019-05-26T16:50:11.873Z,21.70
2019-05-26T16:55:29.557Z,21.90
2019-05-26T17:00:40.814Z,22.10
2019-05-26T17:05:48.254Z,21.90
2019-05-26T17:11:13.774Z,21.80
2019-05-26T17:16:24.283Z,21.70
2019-05-26T17:21:49.686Z,21.50
2019-05-26T17:27:16.622Z,21.70
2019-05-26T17:32:24.873Z,21.90
2019-05-26T17:37:34.646Z,21.40
2019-05-26T17:42:45.275Z,21.30
2019-05-26T17:47:54.954Z,21.30
2019-05-26T17:53:04.638Z,21.30
2019-05-26T17:58:21.091Z,21.20
2019-05-26T18:03:28.292Z,21.30
2019-05-26T18:08:36.533Z,21.20
2019-05-26T18:13:46.641Z,21.00
2019-05-26T18:18:55.935Z,20.80
2019-05-26T18:24:03.138Z,20.30
2019-05-26T18:29:10.865Z,20.20
2019-05-26T18:34:18.565Z,20.30
2019-05-26T18:39:26.825Z,20.20
2019-05-26T18:44:37.640Z,19.70
2019-05-26T18:49:45.441Z,19.90
2019-05-26T18:54:54.029Z,19.60
2019-05-26T19:00:21.892Z,19.30
2019-05-26T19:05:49.253Z,19.30
2019-05-26T19:11:08.918Z,19.00
2019-05-26T19:16:35.537Z,18.90
2019-05-26T19:22:00.813Z,18.80
2019-05-26T19:27:15.417Z,18.50
2019-05-26T19:32:24.952Z,18.20
2019-05-26T19:37:51.181Z,18.00
2019-05-26T19:43:00.809Z,17.80
2019-05-26T19:48:15.832Z,17.60
2019-05-26T19:53:22.996Z,17.30
2019-05-26T19:58:49.281Z,17.20
2019-05-26T20:04:15.770Z,17.00
2019-05-26T20:09:40.955Z,16.70
2019-05-26T20:15:03.730Z,16.50
2019-05-26T20:20:13.245Z,16.50
2019-05-26T20:25:21.786Z,16.40
2019-05-26T20:30:40.840Z,16.20
2019-05-26T20:35:50.988Z,16.10
2019-05-26T20:41:17.179Z,16.00
2019-05-26T20:46:43.795Z,15.80
2019-05-26T20:51:51.743Z,15.60
2019-05-26T20:57:17.904Z,15.40
2019-05-26T21:02:32.464Z,15.40
2019-05-26T21:07:42.174Z,15.30
2019-05-26T21:12:58.958Z,15.30
2019-05-26T21:18:20.753Z,15.30
2019-05-26T21:23:46.270Z,15.20
2019-05-26T21:29:06.942Z,15.20
2019-05-26T21:34:18.246Z,15.20
2019-05-26T21:39:30.250Z,15.10
2019-05-26T21:44:55.409Z,15.00
2019-05-26T21:50:02.549Z,14.90
2019-05-26T21:55:28.009Z,14.70
2019-05-26T22:00:54.855Z,14.60
2019-05-26T22:06:23.403Z,14.60
2019-05-26T22:11:43.430Z,14.60
2019-05-26T22:16:52.415Z,14.60
2019-05-26T22:21:59.932Z,14.50
2019-05-26T22:27:09.299Z,14.50
2019-05-26T22:32:18.097Z,14.50
2019-05-26T22:37:31.173Z,14.40
2019-05-26T22:42:38.541Z,14.40
2019-05-26T23:09:36.371Z,13.80
2019-05-26T23:15:01.839Z,13.70
2019-05-26T23:20:11.898Z,13.50
2019-05-26T23:25:19.623Z,13.50
2019-05-26T23:30:45.278Z,13.40
2019-05-26T23:36:13.336Z,13.40
2019-05-26T23:41:23.314Z,13.40
2019-05-26T23:46:42.483Z,13.30
2019-05-26T23:51:57.332Z,13.30
2019-05-26T23:57:05.373Z,13.20
